sensor_id;sensor_type;location;lat;lon;timestamp;temperature;humidity
22532;DHT22;11432;46.924;7.114;2024-02-21T00:01:22;4.50;99.90
22532;DHT22;11432;46.924;7.114;2024-02-21T00:03:48;4.40;1.00
22532;DHT22;11432;46.924;7.114;2024-02-21T00:06:13;4.40;1.00
22532;DHT22;11432;46.924;7.114;2024-02-21T00:08:39;4.40;1.00
22532;DHT22;11432;46.924;7.114;2024-02-21T00:11:04;4.40;99.90
22532;DHT22;11432;46.924;7.114;2024-02-21T00:13:30;4.30;99.90
22532;DHT22;11432;46.924;7.114;2024-02-21T00:15:56;4.30;99.90
22532;DHT22;11432;46.924;7.114;2024-02-21T00:18:22;4.30;99.90
22532;DHT22;11432;46.924;7.114;2024-02-21T00:20:47;4.30;99.90
22532;DHT22;11432;46.924;7.114;2024-02-21T00:23:13;4.30;99.90
22532;DHT22;11432;46.924;7.114;2024-02-21T00:25:39;4.30;99.90
22532;DHT22;11432;46.924;7.114;2024-02-21T00:28:05;4.30;1.00
22532;DHT22;11432;46.924;7.114;2024-02-21T00:30:31;4.30;1.00
22532;DHT22;11432;46.924;7.114;2024-02-21T00:32:57;4.30;1.00
22532;DHT22;11432;46.924;7.114;2024-02-21T00:35:24;4.30;1.00
22532;DHT22;11432;46.924;7.114;2024-02-21T00:37:51;4.30;1.00
22532;DHT22;11432;46.924;7.114;2024-02-21T00:40:17;4.30;99.90
22532;DHT22;11432;46.924;7.114;2024-02-21T00:42:45;4.30;99.90
22532;DHT22;11432;46.924;7.114;2024-02-21T00:45:11;4.20;1.00
22532;DHT22;11432;46.924;7.114;2024-02-21T00:47:37;4.20;99.90
22532;DHT22;11432;46.924;7.114;2024-02-21T00:50:02;4.20;99.90
22532;DHT22;11432;46.924;7.114;2024-02-21T00:52:28;4.20;1.00
22532;DHT22;11432;46.924;7.114;2024-02-21T00:54:54;4.20;1.00
22532;DHT22;11432;46.924;7.114;2024-02-21T00:57:19;4.20;1.00
22532;DHT22;11432;46.924;7.114;2024-02-21T00:59:45;4.20;1.00
22532;DHT22;11432;46.924;7.114;2024-02-21T01:02:10;4.20;1.00
22532;DHT22;11432;46.924;7.114;2024-02-21T01:04:36;4.20;1.00
22532;DHT22;11432;46.924;7.114;2024-02-21T01:07:02;4.20;1.00
22532;DHT22;11432;46.924;7.114;2024-02-21T01:09:27;4.20;99.90
22532;DHT22;11432;46.924;7.114;2024-02-21T01:11:53;4.20;99.90
22532;DHT22;11432;46.924;7.114;2024-02-21T01:14:18;4.20;1.00
22532;DHT22;11432;46.924;7.114;2024-02-21T01:16:44;4.20;1.00
22532;DHT22;11432;46.924;7.114;2024-02-21T01:19:10;4.20;1.00
22532;DHT22;11432;46.924;7.114;2024-02-21T01:21:35;4.20;1.00
22532;DHT22;11432;46.924;7.114;2024-02-21T01:24:01;4.10;99.90
22532;DHT22;11432;46.924;7.114;2024-02-21T01:26:26;4.20;99.90
22532;DHT22;11432;46.924;7.114;2024-02-21T01:28:52;4.20;99.90
22532;DHT22;11432;46.924;7.114;2024-02-21T01:31:17;4.10;99.90
22532;DHT22;11432;46.924;7.114;2024-02-21T01:33:43;4.10;99.90
22532;DHT22;11432;46.924;7.114;2024-02-21T01:36:09;4.10;99.90
22532;DHT22;11432;46.924;7.114;2024-02-21T01:38:34;4.00;99.90
22532;DHT22;11432;46.924;7.114;2024-02-21T01:41:00;4.00;1.00
22532;DHT22;11432;46.924;7.114;2024-02-21T01:43:26;4.00;1.00
22532;DHT22;11432;46.924;7.114;2024-02-21T01:45:55;3.90;1.00
22532;DHT22;11432;46.924;7.114;2024-02-21T01:48:22;4.00;1.00
22532;DHT22;11432;46.924;7.114;2024-02-21T01:50:52;3.90;1.00
22532;DHT22;11432;46.924;7.114;2024-02-21T01:53:22;3.90;1.00
22532;DHT22;11432;46.924;7.114;2024-02-21T01:55:48;3.90;1.00
22532;DHT22;11432;46.924;7.114;2024-02-21T01:58:15;3.90;1.00
22532;DHT22;11432;46.924;7.114;2024-02-21T02:00:42;3.90;1.00
22532;DHT22;11432;46.924;7.114;2024-02-21T02:03:12;3.80;1.00
22532;DHT22;11432;46.924;7.114;2024-02-21T02:05:48;3.80;1.00
22532;DHT22;11432;46.924;7.114;2024-02-21T02:08:15;3.80;1.00
22532;DHT22;11432;46.924;7.114;2024-02-21T02:10:42;3.80;1.00
22532;DHT22;11432;46.924;7.114;2024-02-21T02:13:08;3.80;1.00
22532;DHT22;11432;46.924;7.114;2024-02-21T02:15:47;3.90;1.00
22532;DHT22;11432;46.924;7.114;2024-02-21T02:18:14;3.90;99.90
22532;DHT22;11432;46.924;7.114;2024-02-21T02:20:40;3.90;99.90
22532;DHT22;11432;46.924;7.114;2024-02-21T02:23:10;3.90;99.90
22532;DHT22;11432;46.924;7.114;2024-02-21T02:25:36;3.90;99.90
22532;DHT22;11432;46.924;7.114;2024-02-21T02:28:03;3.90;99.90
22532;DHT22;11432;46.924;7.114;2024-02-21T02:30:31;3.90;99.90
22532;DHT22;11432;46.924;7.114;2024-02-21T02:32:57;3.80;99.90
22532;DHT22;11432;46.924;7.114;2024-02-21T02:35:22;3.90;99.90
22532;DHT22;11432;46.924;7.114;2024-02-21T02:37:49;3.90;99.90
22532;DHT22;11432;46.924;7.114;2024-02-21T02:40:15;3.80;99.90
22532;DHT22;11432;46.924;7.114;2024-02-21T02:42:41;3.80;99.90
22532;DHT22;11432;46.924;7.114;2024-02-21T02:45:07;3.80;1.00
22532;DHT22;11432;46.924;7.114;2024-02-21T02:47:32;3.80;1.00
22532;DHT22;11432;46.924;7.114;2024-02-21T02:50:00;3.80;1.00
22532;DHT22;11432;46.924;7.114;2024-02-21T02:52:25;3.80;1.00
22532;DHT22;11432;46.924;7.114;2024-02-21T02:54:51;3.80;1.00
22532;DHT22;11432;46.924;7.114;2024-02-21T02:57:18;3.80;1.00
22532;DHT22;11432;46.924;7.114;2024-02-21T02:59:51;3.80;1.00
22532;DHT22;11432;46.924;7.114;2024-02-21T03:02:17;3.80;1.00
22532;DHT22;11432;46.924;7.114;2024-02-21T03:04:43;3.80;1.00
22532;DHT22;11432;46.924;7.114;2024-02-21T03:07:09;3.80;1.00
22532;DHT22;11432;46.924;7.114;2024-02-21T03:09:37;3.80;1.00
22532;DHT22;11432;46.924;7.114;2024-02-21T03:12:03;3.80;1.00
22532;DHT22;11432;46.924;7.114;2024-02-21T03:14:29;3.70;99.90
22532;DHT22;11432;46.924;7.114;2024-02-21T03:16:55;3.60;99.90
22532;DHT22;11432;46.924;7.114;2024-02-21T03:19:21;3.60;1.00
22532;DHT22;11432;46.924;7.114;2024-02-21T03:21:48;3.50;1.00
22532;DHT22;11432;46.924;7.114;2024-02-21T03:24:15;3.50;1.00
22532;DHT22;11432;46.924;7.114;2024-02-21T03:26:41;3.40;1.00
22532;DHT22;11432;46.924;7.114;2024-02-21T03:29:07;3.40;1.00
22532;DHT22;11432;46.924;7.114;2024-02-21T03:31:33;3.30;1.00
22532;DHT22;11432;46.924;7.114;2024-02-21T03:33:59;3.30;1.00
22532;DHT22;11432;46.924;7.114;2024-02-21T03:36:24;3.20;1.00
22532;DHT22;11432;46.924;7.114;2024-02-21T03:38:50;3.20;9.00
22532;DHT22;11432;46.924;7.114;2024-02-21T03:41:15;3.20;13.80
22532;DHT22;11432;46.924;7.114;2024-02-21T03:43:41;3.20;14.10
22532;DHT22;11432;46.924;7.114;2024-02-21T03:46:07;3.20;5.10
22532;DHT22;11432;46.924;7.114;2024-02-21T03:48:32;3.10;1.00
22532;DHT22;11432;46.924;7.114;2024-02-21T03:50:58;3.10;13.80
22532;DHT22;11432;46.924;7.114;2024-02-21T03:53:24;3.10;1.00
22532;DHT22;11432;46.924;7.114;2024-02-21T03:55:50;3.10;17.40
22532;DHT22;11432;46.924;7.114;2024-02-21T03:58:15;3.00;38.90
22532;DHT22;11432;46.924;7.114;2024-02-21T04:00:41;3.00;30.60
22532;DHT22;11432;46.924;7.114;2024-02-21T04:03:06;2.90;87.30
22532;DHT22;11432;46.924;7.114;2024-02-21T04:05:32;2.90;75.60
22532;DHT22;11432;46.924;7.114;2024-02-21T04:07:58;2.90;99.80
22532;DHT22;11432;46.924;7.114;2024-02-21T04:10:24;3.00;99.50
22532;DHT22;11432;46.924;7.114;2024-02-21T04:12:49;2.90;91.20
22532;DHT22;11432;46.924;7.114;2024-02-21T04:15:16;2.90;43.90
22532;DHT22;11432;46.924;7.114;2024-02-21T04:17:42;2.90;25.10
22532;DHT22;11432;46.924;7.114;2024-02-21T04:20:14;2.80;34.00
22532;DHT22;11432;46.924;7.114;2024-02-21T04:22:42;2.80;63.80
22532;DHT22;11432;46.924;7.114;2024-02-21T04:25:08;2.80;99.90
22532;DHT22;11432;46.924;7.114;2024-02-21T04:27:34;2.80;99.90
22532;DHT22;11432;46.924;7.114;2024-02-21T04:29:59;2.80;99.60
22532;DHT22;11432;46.924;7.114;2024-02-21T04:32:25;2.70;98.10
22532;DHT22;11432;46.924;7.114;2024-02-21T04:34:53;2.70;99.90
22532;DHT22;11432;46.924;7.114;2024-02-21T04:37:18;2.60;99.90
22532;DHT22;11432;46.924;7.114;2024-02-21T04:39:44;2.60;99.90
22532;DHT22;11432;46.924;7.114;2024-02-21T04:42:10;2.60;99.90
22532;DHT22;11432;46.924;7.114;2024-02-21T04:44:36;2.60;99.90
22532;DHT22;11432;46.924;7.114;2024-02-21T04:47:01;2.60;99.90
22532;DHT22;11432;46.924;7.114;2024-02-21T04:49:29;2.60;99.90
22532;DHT22;11432;46.924;7.114;2024-02-21T04:51:54;2.60;99.90
22532;DHT22;11432;46.924;7.114;2024-02-21T04:54:20;2.60;99.90
22532;DHT22;11432;46.924;7.114;2024-02-21T04:56:45;2.60;99.90
22532;DHT22;11432;46.924;7.114;2024-02-21T04:59:11;2.50;99.90
22532;DHT22;11432;46.924;7.114;2024-02-21T05:01:37;2.50;99.90
22532;DHT22;11432;46.924;7.114;2024-02-21T05:04:02;2.50;99.90
22532;DHT22;11432;46.924;7.114;2024-02-21T05:06:28;2.50;99.90
22532;DHT22;11432;46.924;7.114;2024-02-21T05:08:54;2.50;99.90
22532;DHT22;11432;46.924;7.114;2024-02-21T05:11:21;2.50;99.90
22532;DHT22;11432;46.924;7.114;2024-02-21T05:13:47;2.50;99.90
22532;DHT22;11432;46.924;7.114;2024-02-21T05:16:12;2.50;99.90
22532;DHT22;11432;46.924;7.114;2024-02-21T05:18:38;2.50;99.90
22532;DHT22;11432;46.924;7.114;2024-02-21T05:21:05;2.50;99.90
22532;DHT22;11432;46.924;7.114;2024-02-21T05:23:30;2.50;99.90
22532;DHT22;11432;46.924;7.114;2024-02-21T05:25:56;2.50;99.90
22532;DHT22;11432;46.924;7.114;2024-02-21T05:28:22;2.50;99.90
22532;DHT22;11432;46.924;7.114;2024-02-21T05:30:47;2.40;99.90
22532;DHT22;11432;46.924;7.114;2024-02-21T05:33:13;2.40;99.90
22532;DHT22;11432;46.924;7.114;2024-02-21T05:35:46;2.40;99.90
22532;DHT22;11432;46.924;7.114;2024-02-21T05:38:12;2.40;99.90
22532;DHT22;11432;46.924;7.114;2024-02-21T05:40:38;2.40;99.90
22532;DHT22;11432;46.924;7.114;2024-02-21T05:43:04;2.40;99.90
22532;DHT22;11432;46.924;7.114;2024-02-21T05:45:29;2.40;99.90
22532;DHT22;11432;46.924;7.114;2024-02-21T05:47:55;2.40;99.90
22532;DHT22;11432;46.924;7.114;2024-02-21T05:50:22;2.40;99.90
22532;DHT22;11432;46.924;7.114;2024-02-21T05:52:52;2.40;99.90
22532;DHT22;11432;46.924;7.114;2024-02-21T05:55:18;2.50;99.90
22532;DHT22;11432;46.924;7.114;2024-02-21T05:57:43;2.50;99.90
22532;DHT22;11432;46.924;7.114;2024-02-21T06:00:09;2.50;99.90
22532;DHT22;11432;46.924;7.114;2024-02-21T06:02:35;2.50;99.90
22532;DHT22;11432;46.924;7.114;2024-02-21T06:05:01;2.50;99.90
22532;DHT22;11432;46.924;7.114;2024-02-21T06:07:26;2.50;99.90
22532;DHT22;11432;46.924;7.114;2024-02-21T06:09:52;2.50;99.90
22532;DHT22;11432;46.924;7.114;2024-02-21T06:12:17;2.40;99.90
22532;DHT22;11432;46.924;7.114;2024-02-21T06:14:43;2.40;99.90
22532;DHT22;11432;46.924;7.114;2024-02-21T06:17:08;2.40;99.90
22532;DHT22;11432;46.924;7.114;2024-02-21T06:19:34;2.40;99.90
22532;DHT22;11432;46.924;7.114;2024-02-21T06:22:00;2.40;99.90
22532;DHT22;11432;46.924;7.114;2024-02-21T06:24:25;2.40;99.90
22532;DHT22;11432;46.924;7.114;2024-02-21T06:26:51;2.50;99.90
22532;DHT22;11432;46.924;7.114;2024-02-21T06:29:17;2.50;99.90
22532;DHT22;11432;46.924;7.114;2024-02-21T06:31:42;2.50;99.90
22532;DHT22;11432;46.924;7.114;2024-02-21T06:34:08;2.50;99.90
22532;DHT22;11432;46.924;7.114;2024-02-21T06:36:33;2.50;99.90
22532;DHT22;11432;46.924;7.114;2024-02-21T06:38:59;2.60;99.90
22532;DHT22;11432;46.924;7.114;2024-02-21T06:41:24;2.60;99.90
22532;DHT22;11432;46.924;7.114;2024-02-21T06:43:51;2.60;99.90
22532;DHT22;11432;46.924;7.114;2024-02-21T06:46:26;2.70;99.90
22532;DHT22;11432;46.924;7.114;2024-02-21T06:48:54;2.70;99.90
22532;DHT22;11432;46.924;7.114;2024-02-21T06:51:22;2.80;99.90
22532;DHT22;11432;46.924;7.114;2024-02-21T06:53:47;2.80;99.90
22532;DHT22;11432;46.924;7.114;2024-02-21T06:57:15;2.80;99.90
22532;DHT22;11432;46.924;7.114;2024-02-21T06:59:41;2.80;99.90
22532;DHT22;11432;46.924;7.114;2024-02-21T07:02:07;2.90;99.90
22532;DHT22;11432;46.924;7.114;2024-02-21T07:04:33;2.90;99.90
22532;DHT22;11432;46.924;7.114;2024-02-21T07:06:59;3.00;99.90
22532;DHT22;11432;46.924;7.114;2024-02-21T07:09:25;3.00;99.90
22532;DHT22;11432;46.924;7.114;2024-02-21T07:11:51;3.00;99.90
22532;DHT22;11432;46.924;7.114;2024-02-21T07:14:17;3.00;99.90
22532;DHT22;11432;46.924;7.114;2024-02-21T07:16:43;3.10;99.90
22532;DHT22;11432;46.924;7.114;2024-02-21T07:19:09;3.10;99.90
22532;DHT22;11432;46.924;7.114;2024-02-21T07:21:34;3.10;99.90
22532;DHT22;11432;46.924;7.114;2024-02-21T07:24:00;3.10;99.90
22532;DHT22;11432;46.924;7.114;2024-02-21T07:26:25;3.20;99.90
22532;DHT22;11432;46.924;7.114;2024-02-21T07:28:51;3.20;99.90
22532;DHT22;11432;46.924;7.114;2024-02-21T07:31:17;3.30;99.90
22532;DHT22;11432;46.924;7.114;2024-02-21T07:33:42;3.40;99.90
22532;DHT22;11432;46.924;7.114;2024-02-21T07:36:10;4.10;99.90
22532;DHT22;11432;46.924;7.114;2024-02-21T07:38:36;5.20;99.90
22532;DHT22;11432;46.924;7.114;2024-02-21T07:41:02;5.10;1.00
22532;DHT22;11432;46.924;7.114;2024-02-21T07:43:29;4.70;99.90
22532;DHT22;11432;46.924;7.114;2024-02-21T07:45:55;4.40;31.30
22532;DHT22;11432;46.924;7.114;2024-02-21T07:48:21;4.20;1.00
22532;DHT22;11432;46.924;7.114;2024-02-21T07:50:52;4.10;99.90
22532;DHT22;11432;46.924;7.114;2024-02-21T07:53:20;4.10;1.00
22532;DHT22;11432;46.924;7.114;2024-02-21T07:55:45;4.10;1.00
22532;DHT22;11432;46.924;7.114;2024-02-21T07:58:11;4.20;1.00
22532;DHT22;11432;46.924;7.114;2024-02-21T08:00:36;4.20;1.00
22532;DHT22;11432;46.924;7.114;2024-02-21T08:03:02;4.30;1.00
22532;DHT22;11432;46.924;7.114;2024-02-21T08:05:28;4.20;1.00
22532;DHT22;11432;46.924;7.114;2024-02-21T08:07:55;4.30;1.00
22532;DHT22;11432;46.924;7.114;2024-02-21T08:10:21;4.30;1.00
22532;DHT22;11432;46.924;7.114;2024-02-21T08:12:46;4.40;1.00
22532;DHT22;11432;46.924;7.114;2024-02-21T08:15:12;4.40;99.90
22532;DHT22;11432;46.924;7.114;2024-02-21T08:17:38;4.50;99.90
22532;DHT22;11432;46.924;7.114;2024-02-21T08:20:04;4.60;99.90
22532;DHT22;11432;46.924;7.114;2024-02-21T08:22:30;4.70;99.90
22532;DHT22;11432;46.924;7.114;2024-02-21T08:24:55;4.80;1.00
22532;DHT22;11432;46.924;7.114;2024-02-21T08:27:21;4.90;45.70
22532;DHT22;11432;46.924;7.114;2024-02-21T08:29:46;5.00;99.90
22532;DHT22;11432;46.924;7.114;2024-02-21T08:32:12;5.00;99.90
22532;DHT22;11432;46.924;7.114;2024-02-21T08:34:38;5.10;1.00
22532;DHT22;11432;46.924;7.114;2024-02-21T08:37:03;5.30;1.00
22532;DHT22;11432;46.924;7.114;2024-02-21T08:39:29;5.10;99.90
22532;DHT22;11432;46.924;7.114;2024-02-21T08:41:56;5.20;1.00
22532;DHT22;11432;46.924;7.114;2024-02-21T08:44:27;5.10;99.90
22532;DHT22;11432;46.924;7.114;2024-02-21T08:46:53;5.10;1.00
22532;DHT22;11432;46.924;7.114;2024-02-21T08:49:18;5.00;1.00
22532;DHT22;11432;46.924;7.114;2024-02-21T08:51:44;5.20;1.00
22532;DHT22;11432;46.924;7.114;2024-02-21T08:54:09;5.30;99.90
22532;DHT22;11432;46.924;7.114;2024-02-21T08:56:35;5.40;1.00
22532;DHT22;11432;46.924;7.114;2024-02-21T08:59:01;5.60;99.90
22532;DHT22;11432;46.924;7.114;2024-02-21T09:01:27;5.60;99.90
22532;DHT22;11432;46.924;7.114;2024-02-21T09:03:52;5.60;99.90
22532;DHT22;11432;46.924;7.114;2024-02-21T09:06:19;5.50;68.50
22532;DHT22;11432;46.924;7.114;2024-02-21T09:08:48;5.40;1.00
22532;DHT22;11432;46.924;7.114;2024-02-21T09:11:13;5.50;32.80
22532;DHT22;11432;46.924;7.114;2024-02-21T09:13:39;5.70;1.00
22532;DHT22;11432;46.924;7.114;2024-02-21T09:16:05;5.90;1.00
22532;DHT22;11432;46.924;7.114;2024-02-21T09:18:31;5.90;99.90
22532;DHT22;11432;46.924;7.114;2024-02-21T09:20:57;6.10;99.90
22532;DHT22;11432;46.924;7.114;2024-02-21T09:23:25;6.30;99.90
22532;DHT22;11432;46.924;7.114;2024-02-21T09:25:51;6.30;16.30
22532;DHT22;11432;46.924;7.114;2024-02-21T09:28:16;6.40;71.20
22532;DHT22;11432;46.924;7.114;2024-02-21T09:30:42;6.50;1.00
22532;DHT22;11432;46.924;7.114;2024-02-21T09:33:08;6.50;99.90
22532;DHT22;11432;46.924;7.114;2024-02-21T09:35:33;6.60;24.50
22532;DHT22;11432;46.924;7.114;2024-02-21T09:37:59;6.40;99.90
22532;DHT22;11432;46.924;7.114;2024-02-21T09:40:25;6.30;99.90
22532;DHT22;11432;46.924;7.114;2024-02-21T09:43:01;6.50;99.90
22532;DHT22;11432;46.924;7.114;2024-02-21T09:45:29;6.70;1.00
22532;DHT22;11432;46.924;7.114;2024-02-21T09:50:34;6.90;1.00
22532;DHT22;11432;46.924;7.114;2024-02-21T09:53:02;6.90;99.90
22532;DHT22;11432;46.924;7.114;2024-02-21T09:55:31;7.00;74.50
22532;DHT22;11432;46.924;7.114;2024-02-21T09:58:01;7.00;1.00
22532;DHT22;11432;46.924;7.114;2024-02-21T10:00:27;7.00;99.90
22532;DHT22;11432;46.924;7.114;2024-02-21T10:02:54;7.10;1.00
22532;DHT22;11432;46.924;7.114;2024-02-21T10:05:19;7.00;1.00
22532;DHT22;11432;46.924;7.114;2024-02-21T10:07:46;7.20;1.00
22532;DHT22;11432;46.924;7.114;2024-02-21T10:10:12;7.50;1.00
22532;DHT22;11432;46.924;7.114;2024-02-21T10:12:51;7.60;1.00
22532;DHT22;11432;46.924;7.114;2024-02-21T10:15:21;7.20;1.00
22532;DHT22;11432;46.924;7.114;2024-02-21T10:17:58;7.30;1.00
22532;DHT22;11432;46.924;7.114;2024-02-21T10:20:24;7.30;99.90
22532;DHT22;11432;46.924;7.114;2024-02-21T10:23:00;7.20;1.00
22532;DHT22;11432;46.924;7.114;2024-02-21T10:25:27;7.20;99.90
22532;DHT22;11432;46.924;7.114;2024-02-21T10:27:53;7.10;1.00
22532;DHT22;11432;46.924;7.114;2024-02-21T10:30:19;7.10;99.90
22532;DHT22;11432;46.924;7.114;2024-02-21T10:32:50;7.30;1.00
22532;DHT22;11432;46.924;7.114;2024-02-21T10:35:25;7.40;1.00
22532;DHT22;11432;46.924;7.114;2024-02-21T10:37:52;7.80;99.90
22532;DHT22;11432;46.924;7.114;2024-02-21T10:40:24;8.00;1.00
22532;DHT22;11432;46.924;7.114;2024-02-21T10:43:00;8.10;1.00
22532;DHT22;11432;46.924;7.114;2024-02-21T10:47:56;8.40;1.00
22532;DHT22;11432;46.924;7.114;2024-02-21T10:50:25;8.40;1.00
22532;DHT22;11432;46.924;7.114;2024-02-21T10:53:32;8.50;99.90
22532;DHT22;11432;46.924;7.114;2024-02-21T10:56:06;8.70;99.90
22532;DHT22;11432;46.924;7.114;2024-02-21T10:58:37;8.70;99.90
22532;DHT22;11432;46.924;7.114;2024-02-21T11:01:03;8.70;1.00
22532;DHT22;11432;46.924;7.114;2024-02-21T11:03:30;8.70;1.00
22532;DHT22;11432;46.924;7.114;2024-02-21T11:05:56;8.60;99.90
22532;DHT22;11432;46.924;7.114;2024-02-21T11:08:22;8.80;99.90
22532;DHT22;11432;46.924;7.114;2024-02-21T11:10:50;8.90;99.90
22532;DHT22;11432;46.924;7.114;2024-02-21T11:13:15;9.20;99.90
22532;DHT22;11432;46.924;7.114;2024-02-21T11:15:41;9.40;99.90
22532;DHT22;11432;46.924;7.114;2024-02-21T11:18:07;9.50;94.10
22532;DHT22;11432;46.924;7.114;2024-02-21T11:20:36;9.40;31.40
22532;DHT22;11432;46.924;7.114;2024-02-21T11:23:02;9.30;99.90
22532;DHT22;11432;46.924;7.114;2024-02-21T11:25:30;9.70;1.00
22532;DHT22;11432;46.924;7.114;2024-02-21T11:28:02;9.80;1.00
22532;DHT22;11432;46.924;7.114;2024-02-21T11:30:32;9.70;99.90
22532;DHT22;11432;46.924;7.114;2024-02-21T11:33:02;9.70;99.90
22532;DHT22;11432;46.924;7.114;2024-02-21T11:35:31;10.10;99.90
22532;DHT22;11432;46.924;7.114;2024-02-21T11:38:10;10.50;3.60
22532;DHT22;11432;46.924;7.114;2024-02-21T11:40:40;11.00;1.00
22532;DHT22;11432;46.924;7.114;2024-02-21T11:43:06;11.50;1.00
22532;DHT22;11432;46.924;7.114;2024-02-21T11:45:32;11.80;99.90
22532;DHT22;11432;46.924;7.114;2024-02-21T11:47:59;11.80;1.00
22532;DHT22;11432;46.924;7.114;2024-02-21T11:50:31;11.60;99.90
22532;DHT22;11432;46.924;7.114;2024-02-21T11:52:57;11.80;55.00
22532;DHT22;11432;46.924;7.114;2024-02-21T11:55:23;11.60;1.00
22532;DHT22;11432;46.924;7.114;2024-02-21T11:57:49;11.80;1.00
22532;DHT22;11432;46.924;7.114;2024-02-21T12:00:17;11.70;1.00
22532;DHT22;11432;46.924;7.114;2024-02-21T12:02:45;11.70;1.00
22532;DHT22;11432;46.924;7.114;2024-02-21T12:05:11;11.80;25.80
22532;DHT22;11432;46.924;7.114;2024-02-21T12:07:37;11.70;1.00
22532;DHT22;11432;46.924;7.114;2024-02-21T12:10:10;11.80;1.00
22532;DHT22;11432;46.924;7.114;2024-02-21T12:12:35;12.10;1.00
22532;DHT22;11432;46.924;7.114;2024-02-21T12:15:03;12.30;99.90
22532;DHT22;11432;46.924;7.114;2024-02-21T12:17:30;12.10;99.90
22532;DHT22;11432;46.924;7.114;2024-02-21T12:19:57;12.50;99.90
22532;DHT22;11432;46.924;7.114;2024-02-21T12:22:22;12.60;1.00
22532;DHT22;11432;46.924;7.114;2024-02-21T12:24:48;12.70;99.90
22532;DHT22;11432;46.924;7.114;2024-02-21T12:27:14;12.40;99.90
22532;DHT22;11432;46.924;7.114;2024-02-21T12:29:39;12.40;1.00
22532;DHT22;11432;46.924;7.114;2024-02-21T12:32:05;12.50;1.00
22532;DHT22;11432;46.924;7.114;2024-02-21T12:34:31;12.90;99.90
22532;DHT22;11432;46.924;7.114;2024-02-21T12:36:59;13.10;1.00
22532;DHT22;11432;46.924;7.114;2024-02-21T12:39:25;13.10;1.00
22532;DHT22;11432;46.924;7.114;2024-02-21T12:41:55;13.40;99.90
22532;DHT22;11432;46.924;7.114;2024-02-21T12:44:22;13.40;1.00
22532;DHT22;11432;46.924;7.114;2024-02-21T12:46:47;13.30;99.90
22532;DHT22;11432;46.924;7.114;2024-02-21T12:49:18;13.00;99.90
22532;DHT22;11432;46.924;7.114;2024-02-21T12:51:44;12.60;99.90
22532;DHT22;11432;46.924;7.114;2024-02-21T12:54:12;12.10;99.90
22532;DHT22;11432;46.924;7.114;2024-02-21T12:56:38;12.10;99.90
22532;DHT22;11432;46.924;7.114;2024-02-21T12:59:05;12.30;99.90
22532;DHT22;11432;46.924;7.114;2024-02-21T13:01:31;12.40;51.80
22532;DHT22;11432;46.924;7.114;2024-02-21T13:03:56;12.30;1.00
22532;DHT22;11432;46.924;7.114;2024-02-21T13:06:23;12.10;1.00
22532;DHT22;11432;46.924;7.114;2024-02-21T13:08:50;11.90;1.00
22532;DHT22;11432;46.924;7.114;2024-02-21T13:11:16;12.00;1.00
22532;DHT22;11432;46.924;7.114;2024-02-21T13:13:42;11.90;87.50
22532;DHT22;11432;46.924;7.114;2024-02-21T13:16:07;12.00;1.00
22532;DHT22;11432;46.924;7.114;2024-02-21T13:18:35;12.20;1.00
22532;DHT22;11432;46.924;7.114;2024-02-21T13:21:00;12.10;1.00
22532;DHT22;11432;46.924;7.114;2024-02-21T13:23:26;12.20;1.00
22532;DHT22;11432;46.924;7.114;2024-02-21T13:25:51;12.00;1.00
22532;DHT22;11432;46.924;7.114;2024-02-21T13:28:17;12.10;1.00
22532;DHT22;11432;46.924;7.114;2024-02-21T13:30:43;12.00;1.00
22532;DHT22;11432;46.924;7.114;2024-02-21T13:33:09;11.70;1.00
22532;DHT22;11432;46.924;7.114;2024-02-21T13:35:35;11.80;1.00
22532;DHT22;11432;46.924;7.114;2024-02-21T13:38:02;11.90;1.00
22532;DHT22;11432;46.924;7.114;2024-02-21T13:40:28;12.00;1.00
22532;DHT22;11432;46.924;7.114;2024-02-21T13:42:54;12.00;1.00
22532;DHT22;11432;46.924;7.114;2024-02-21T13:45:20;12.10;1.00
22532;DHT22;11432;46.924;7.114;2024-02-21T13:47:46;12.10;1.00
22532;DHT22;11432;46.924;7.114;2024-02-21T13:50:11;12.20;1.00
22532;DHT22;11432;46.924;7.114;2024-02-21T13:52:40;12.10;1.00
22532;DHT22;11432;46.924;7.114;2024-02-21T13:55:05;11.90;1.00
22532;DHT22;11432;46.924;7.114;2024-02-21T13:57:36;11.70;1.00
22532;DHT22;11432;46.924;7.114;2024-02-21T14:00:03;11.80;99.90
22532;DHT22;11432;46.924;7.114;2024-02-21T14:02:30;11.60;99.90
22532;DHT22;11432;46.924;7.114;2024-02-21T14:04:56;11.80;99.90
22532;DHT22;11432;46.924;7.114;2024-02-21T14:07:21;11.70;1.00
22532;DHT22;11432;46.924;7.114;2024-02-21T14:09:47;11.50;1.00
22532;DHT22;11432;46.924;7.114;2024-02-21T14:12:13;11.40;1.00
22532;DHT22;11432;46.924;7.114;2024-02-21T14:14:38;11.30;1.00
22532;DHT22;11432;46.924;7.114;2024-02-21T14:17:04;11.00;1.00
22532;DHT22;11432;46.924;7.114;2024-02-21T14:19:30;10.90;99.90
22532;DHT22;11432;46.924;7.114;2024-02-21T14:21:56;10.70;99.90
22532;DHT22;11432;46.924;7.114;2024-02-21T14:24:22;10.80;99.90
22532;DHT22;11432;46.924;7.114;2024-02-21T14:26:48;10.80;99.90
22532;DHT22;11432;46.924;7.114;2024-02-21T14:29:14;10.90;99.90
22532;DHT22;11432;46.924;7.114;2024-02-21T14:31:40;10.80;99.90
22532;DHT22;11432;46.924;7.114;2024-02-21T14:34:05;10.80;99.90
22532;DHT22;11432;46.924;7.114;2024-02-21T14:36:33;10.80;99.90
22532;DHT22;11432;46.924;7.114;2024-02-21T14:38:59;10.70;99.90
22532;DHT22;11432;46.924;7.114;2024-02-21T14:41:24;10.70;99.90
22532;DHT22;11432;46.924;7.114;2024-02-21T14:43:50;10.70;99.90
22532;DHT22;11432;46.924;7.114;2024-02-21T14:46:17;10.60;99.90
22532;DHT22;11432;46.924;7.114;2024-02-21T14:48:43;10.60;99.90
22532;DHT22;11432;46.924;7.114;2024-02-21T14:51:08;10.60;99.90
22532;DHT22;11432;46.924;7.114;2024-02-21T14:53:34;10.60;99.90
22532;DHT22;11432;46.924;7.114;2024-02-21T14:55:59;10.50;99.90
22532;DHT22;11432;46.924;7.114;2024-02-21T14:58:25;10.50;99.90
22532;DHT22;11432;46.924;7.114;2024-02-21T15:00:51;10.60;99.90
22532;DHT22;11432;46.924;7.114;2024-02-21T15:03:17;10.60;99.90
22532;DHT22;11432;46.924;7.114;2024-02-21T15:05:46;10.70;99.90
22532;DHT22;11432;46.924;7.114;2024-02-21T15:08:12;10.70;99.90
22532;DHT22;11432;46.924;7.114;2024-02-21T15:10:38;10.80;99.90
22532;DHT22;11432;46.924;7.114;2024-02-21T15:13:04;10.80;99.90
22532;DHT22;11432;46.924;7.114;2024-02-21T15:15:30;10.80;99.90
22532;DHT22;11432;46.924;7.114;2024-02-21T15:17:56;10.80;99.90
22532;DHT22;11432;46.924;7.114;2024-02-21T15:20:21;10.80;99.90
22532;DHT22;11432;46.924;7.114;2024-02-21T15:22:47;10.80;99.90
22532;DHT22;11432;46.924;7.114;2024-02-21T15:25:13;10.90;99.90
22532;DHT22;11432;46.924;7.114;2024-02-21T15:27:44;11.00;99.90
22532;DHT22;11432;46.924;7.114;2024-02-21T15:30:13;11.10;99.90
22532;DHT22;11432;46.924;7.114;2024-02-21T15:32:39;11.00;99.90
22532;DHT22;11432;46.924;7.114;2024-02-21T15:35:08;10.90;99.90
22532;DHT22;11432;46.924;7.114;2024-02-21T15:37:34;10.80;99.90
22532;DHT22;11432;46.924;7.114;2024-02-21T15:39:59;10.70;99.90
22532;DHT22;11432;46.924;7.114;2024-02-21T15:42:26;10.70;64.10
22532;DHT22;11432;46.924;7.114;2024-02-21T15:44:52;10.70;99.90
22532;DHT22;11432;46.924;7.114;2024-02-21T15:47:17;10.60;21.30
22532;DHT22;11432;46.924;7.114;2024-02-21T15:49:44;10.70;14.80